Time;durP1;ratioP1;P1;durP2;ratioP2;P2;SDS_P1;SDS_P2;PMS_P1;PMS_P2;Temp;Humidity;BMP_temperature;BMP_pressure;BME280_temperature;BME280_humidity;BME280_pressure;Samples;Min_cycle;Max_cycle;Signal;HPM_P1;HPM_P2
2024/01/04 00:01:13;;;;;;;2.38;0.80;;;8.70;99.90;;;;;;5051153;28;20220;-45
2024/01/04 00:03:39;;;;;;;1.50;0.80;;;8.70;99.90;;;;;;5051258;28;20171;-45
2024/01/04 00:06:05;;;;;;;2.28;1.15;;;8.70;99.90;;;;;;5034439;28;20266;-44
2024/01/04 00:08:30;;;;;;;3.22;0.90;;;8.70;99.90;;;;;;5032188;28;20576;-45
2024/01/04 00:10:57;;;;;;;2.22;1.23;;;8.70;99.90;;;;;;5031803;28;20237;-45
2024/01/04 00:13:22;;;;;;;2.42;1.15;;;8.70;99.90;;;;;;5032010;28;20183;-47
2024/01/04 00:15:48;;;;;;;2.08;1.20;;;8.70;99.90;;;;;;5031875;28;20651;-44
2024/01/04 00:18:13;;;;;;;2.28;1.00;;;8.70;99.90;;;;;;5031577;28;20651;-45
2024/01/04 00:20:39;;;;;;;1.70;1.60;;;8.70;99.90;;;;;;5032907;28;20626;-45
2024/01/04 00:23:05;;;;;;;1.15;1.00;;;8.70;99.90;;;;;;5031585;28;20198;-47
2024/01/04 00:25:30;;;;;;;7.22;2.33;;;8.70;99.90;;;;;;5032020;28;20214;-45
2024/01/04 00:27:56;;;;;;;2.90;1.20;;;8.70;99.90;;;;;;5031536;28;20171;-47
2024/01/04 00:30:21;;;;;;;6.63;1.50;;;8.80;99.90;;;;;;5031456;28;20662;-47
2024/01/04 00:32:47;;;;;;;4.63;1.33;;;8.70;99.90;;;;;;5033700;28;20571;-47
2024/01/04 00:35:12;;;;;;;2.15;1.10;;;8.80;99.90;;;;;;5042636;28;20578;-47
2024/01/04 00:37:38;;;;;;;7.50;2.42;;;8.80;99.90;;;;;;5053263;28;20170;-51
2024/01/04 00:40:04;;;;;;;4.47;1.83;;;8.80;99.90;;;;;;5053264;28;20171;-47
2024/01/04 00:42:30;;;;;;;5.53;2.10;;;8.80;99.90;;;;;;5053585;28;20181;-46
2024/01/04 00:44:55;;;;;;;7.20;2.50;;;8.70;99.90;;;;;;5053473;28;20175;-46
2024/01/04 00:47:21;;;;;;;7.05;2.50;;;8.70;99.90;;;;;;5053161;28;20232;-46
2024/01/04 00:49:46;;;;;;;4.03;2.00;;;8.70;99.90;;;;;;5053010;28;20624;-49
2024/01/04 00:52:12;;;;;;;5.85;2.25;;;8.70;99.90;;;;;;5053051;28;20623;-47
2024/01/04 00:54:37;;;;;;;6.25;1.95;;;8.70;99.90;;;;;;5052782;28;20189;-50
2024/01/04 00:57:03;;;;;;;7.90;2.67;;;8.70;99.90;;;;;;5052977;28;20178;-46
2024/01/04 00:59:29;;;;;;;5.30;1.83;;;8.60;99.90;;;;;;5053336;28;20202;-47
2024/01/04 01:01:54;;;;;;;5.85;1.70;;;8.70;99.90;;;;;;5052995;28;20698;-46
2024/01/04 01:04:20;;;;;;;2.20;1.50;;;8.70;99.90;;;;;;5051998;28;20249;-47
2024/01/04 01:06:45;;;;;;;4.15;1.52;;;8.60;99.90;;;;;;5052807;28;20261;-47
2024/01/04 01:09:11;;;;;;;5.93;1.77;;;8.70;99.90;;;;;;5052757;28;20212;-48
2024/01/04 01:11:37;;;;;;;5.38;1.42;;;8.70;99.90;;;;;;5052870;28;20495;-48
2024/01/04 01:14:03;;;;;;;5.32;1.83;;;8.60;99.90;;;;;;5053270;28;20163;-48
2024/01/04 01:16:28;;;;;;;5.43;2.00;;;8.70;99.90;;;;;;5052142;28;20181;-50
2024/01/04 01:18:54;;;;;;;3.58;1.30;;;8.70;99.90;;;;;;5052587;28;20166;-47
2024/01/04 01:21:19;;;;;;;3.20;1.67;;;8.70;99.90;;;;;;5052445;28;20254;-47
2024/01/04 01:23:45;;;;;;;7.93;2.20;;;8.70;99.90;;;;;;5052477;28;20198;-47
2024/01/04 01:26:10;;;;;;;2.67;1.92;;;8.70;99.90;;;;;;5052502;28;20248;-46
2024/01/04 01:28:36;;;;;;;10.30;2.58;;;8.70;99.90;;;;;;5052334;28;20170;-47
2024/01/04 01:31:02;;;;;;;6.18;1.98;;;8.70;99.90;;;;;;5052737;28;20182;-48
2024/01/04 01:33:27;;;;;;;9.55;2.08;;;8.70;99.90;;;;;;5052196;28;20159;-47
2024/01/04 01:35:53;;;;;;;5.57;1.90;;;8.70;99.90;;;;;;5032874;28;20183;-48
2024/01/04 01:38:18;;;;;;;7.18;2.33;;;8.70;99.90;;;;;;5032231;28;20163;-47
2024/01/04 01:40:44;;;;;;;6.80;2.13;;;8.70;99.90;;;;;;5032219;28;20179;-48
2024/01/04 01:43:11;;;;;;;2.33;1.70;;;8.70;99.90;;;;;;5030935;28;20163;-47
2024/01/04 01:45:37;;;;;;;5.28;2.60;;;8.70;99.90;;;;;;5032097;28;20206;-48
2024/01/04 01:48:04;;;;;;;4.30;1.80;;;8.70;99.90;;;;;;5030797;28;20665;-46
2024/01/04 01:50:32;;;;;;;5.57;1.83;;;8.70;99.90;;;;;;5032448;28;20217;-46
2024/01/04 01:52:58;;;;;;;3.28;1.75;;;8.80;99.90;;;;;;5032423;28;20167;-47
2024/01/04 01:55:25;;;;;;;4.30;1.98;;;8.70;99.90;;;;;;5031845;28;20290;-47
2024/01/04 01:57:51;;;;;;;4.32;2.20;;;8.80;99.90;;;;;;5032113;28;20210;-46
2024/01/04 02:00:17;;;;;;;6.38;3.30;;;8.70;99.90;;;;;;5031900;28;20166;-47
2024/01/04 02:02:48;;;;;;;5.43;2.22;;;8.80;99.90;;;;;;5031909;28;20167;-47
2024/01/04 02:05:14;;;;;;;7.70;2.83;;;8.80;99.90;;;;;;5032314;28;20179;-47
2024/01/04 02:07:40;;;;;;;6.90;2.47;;;8.80;99.90;;;;;;5031729;28;20167;-48
2024/01/04 02:10:06;;;;;;;6.85;2.45;;;8.80;99.90;;;;;;5030314;28;20203;-46
2024/01/04 02:12:32;;;;;;;6.72;2.40;;;8.80;99.90;;;;;;5032129;28;20183;-48
2024/01/04 02:14:58;;;;;;;3.95;2.13;;;8.80;99.90;;;;;;5032141;28;20221;-48
2024/01/04 02:17:25;;;;;;;8.15;2.83;;;8.80;99.90;;;;;;5031579;28;20182;-46
2024/01/04 02:19:52;;;;;;;8.48;2.17;;;8.80;99.90;;;;;;5031610;28;20198;-47
2024/01/04 02:22:17;;;;;;;3.22;2.33;;;8.80;99.90;;;;;;5031441;28;20166;-47
2024/01/04 02:24:46;;;;;;;4.03;1.65;;;8.80;99.90;;;;;;5031569;28;20175;-46
2024/01/04 02:27:12;;;;;;;12.65;2.80;;;8.70;99.90;;;;;;5031334;28;20159;-46
2024/01/04 02:29:38;;;;;;;3.45;1.70;;;8.80;99.90;;;;;;5031595;28;20605;-48
2024/01/04 02:32:04;;;;;;;10.70;2.25;;;8.70;99.90;;;;;;5031280;28;20175;-47
2024/01/04 02:34:30;;;;;;;4.40;2.47;;;8.70;99.90;;;;;;5043041;28;20175;-46
2024/01/04 02:36:56;;;;;;;2.65;1.92;;;8.80;99.90;;;;;;5051275;28;20169;-48
2024/01/04 02:39:22;;;;;;;9.40;2.67;;;8.70;99.90;;;;;;5051178;28;20166;-47
2024/01/04 02:41:47;;;;;;;6.10;2.35;;;8.70;99.90;;;;;;5051202;28;20576;-49
2024/01/04 02:44:13;;;;;;;8.02;1.95;;;8.70;99.90;;;;;;5051154;28;20277;-53
2024/01/04 02:46:38;;;;;;;8.35;2.22;;;8.70;99.90;;;;;;5049472;28;20174;-53
2024/01/04 02:49:04;;;;;;;3.80;2.03;;;8.70;99.90;;;;;;5051045;28;20198;-53
2024/01/04 02:51:29;;;;;;;4.13;2.38;;;8.80;99.90;;;;;;5051625;28;20289;-53
2024/01/04 02:53:55;;;;;;;5.65;2.83;;;8.70;99.90;;;;;;5051072;28;20196;-51
2024/01/04 02:56:21;;;;;;;7.70;2.75;;;8.70;99.90;;;;;;5050828;28;20218;-53
2024/01/04 02:58:47;;;;;;;8.48;3.45;;;8.70;99.90;;;;;;5051166;28;20170;-53
2024/01/04 03:01:22;;;;;;;5.63;2.72;;;8.70;99.90;;;;;;5051242;28;20178;-53
2024/01/04 03:03:51;;;;;;;4.90;2.15;;;8.70;99.90;;;;;;5045119;28;20225;-53
2024/01/04 03:06:27;;;;;;;9.85;2.60;;;8.70;99.90;;;;;;5031083;28;20187;-52
2024/01/04 03:08:53;;;;;;;8.52;2.60;;;8.70;99.90;;;;;;5030852;28;20767;-53
2024/01/04 03:11:19;;;;;;;9.30;2.78;;;8.70;99.90;;;;;;5030989;28;20193;-53
2024/01/04 03:13:46;;;;;;;8.50;3.05;;;8.70;99.90;;;;;;5030964;28;20199;-52
2024/01/04 03:16:12;;;;;;;6.93;3.05;;;8.70;99.90;;;;;;5030886;28;20167;-52
2024/01/04 03:18:38;;;;;;;6.47;2.60;;;8.70;99.90;;;;;;5030995;28;20174;-52
2024/01/04 03:21:05;;;;;;;7.68;3.20;;;8.70;99.90;;;;;;5030852;28;20179;-51
2024/01/04 03:23:30;;;;;;;5.57;2.15;;;8.60;99.90;;;;;;5031293;28;20198;-53
2024/01/04 03:25:56;;;;;;;7.05;2.80;;;8.60;99.90;;;;;;5030778;28;20163;-51
2024/01/04 03:28:21;;;;;;;11.07;2.45;;;8.60;99.90;;;;;;5030826;28;20654;-51
2024/01/04 03:30:47;;;;;;;7.78;2.80;;;8.60;99.90;;;;;;5030742;28;20203;-52
2024/01/04 03:33:13;;;;;;;6.00;2.83;;;8.60;99.90;;;;;;5031123;28;20174;-49
2024/01/04 03:35:38;;;;;;;6.28;2.70;;;8.60;99.90;;;;;;5049479;28;20182;-52
2024/01/04 03:38:04;;;;;;;7.32;2.83;;;8.50;99.90;;;;;;5050541;28;20170;-51
2024/01/04 03:40:29;;;;;;;6.88;2.75;;;8.50;99.90;;;;;;5054892;28;20216;-49
2024/01/04 03:42:55;;;;;;;4.60;2.30;;;8.50;99.90;;;;;;5054678;28;20514;-53
2024/01/04 03:45:21;;;;;;;6.43;2.58;;;8.50;99.90;;;;;;5053049;28;20653;-52
2024/01/04 03:47:47;;;;;;;9.95;2.22;;;8.50;99.90;;;;;;5054525;28;20228;-51
2024/01/04 03:50:13;;;;;;;4.82;1.65;;;8.40;99.90;;;;;;5054356;28;20211;-53
2024/01/04 03:52:39;;;;;;;5.82;2.83;;;8.50;99.90;;;;;;5054171;28;20166;-53
2024/01/04 03:55:04;;;;;;;4.40;2.30;;;8.50;99.90;;;;;;5054111;28;20223;-51
2024/01/04 03:57:30;;;;;;;5.97;2.92;;;8.50;99.90;;;;;;5054539;28;20181;-51
2024/01/04 03:59:55;;;;;;;5.70;2.47;;;8.60;99.90;;;;;;5053997;28;20699;-48
2024/01/04 04:02:21;;;;;;;6.38;2.50;;;8.60;99.90;;;;;;5054000;28;20522;-51
2024/01/04 04:04:46;;;;;;;6.10;2.88;;;8.60;99.90;;;;;;5040352;28;20172;-52
2024/01/04 04:07:12;;;;;;;6.03;2.30;;;8.60;99.90;;;;;;5033689;28;20175;-51
2024/01/04 04:09:38;;;;;;;5.72;2.63;;;8.60;99.90;;;;;;5033862;28;20206;-52
2024/01/04 04:12:03;;;;;;;7.45;2.97;;;8.60;99.90;;;;;;5033901;28;20171;-52
2024/01/04 04:14:33;;;;;;;8.88;3.35;;;8.60;99.90;;;;;;5034265;28;20171;-52
2024/01/04 04:17:00;;;;;;;6.90;3.13;;;8.60;99.90;;;;;;5034202;28;20546;-51
2024/01/04 04:19:25;;;;;;;9.93;3.20;;;8.60;99.90;;;;;;5033739;28;20164;-53
2024/01/04 04:21:51;;;;;;;9.63;3.15;;;8.60;99.90;;;;;;5033783;28;20189;-52
2024/01/04 04:24:16;;;;;;;8.40;4.15;;;8.60;99.90;;;;;;5033691;28;20168;-52
2024/01/04 04:26:42;;;;;;;8.20;3.42;;;8.60;99.90;;;;;;5033660;28;20179;-52
2024/01/04 04:29:07;;;;;;;6.57;3.17;;;8.60;99.90;;;;;;5033501;28;20188;-52
2024/01/04 04:31:33;;;;;;;6.45;3.55;;;8.60;99.90;;;;;;5033482;28;20253;-50
2024/01/04 04:33:58;;;;;;;7.40;3.35;;;8.70;99.90;;;;;;5032766;28;20225;-52
2024/01/04 04:36:24;;;;;;;8.90;3.05;;;8.60;99.90;;;;;;5033457;28;20183;-52
2024/01/04 04:38:49;;;;;;;8.57;4.53;;;8.70;99.90;;;;;;5033427;28;20217;-52
2024/01/04 04:41:15;;;;;;;8.50;3.55;;;8.70;99.90;;;;;;5033269;28;20179;-52
2024/01/04 04:43:41;;;;;;;10.57;3.70;;;8.70;99.90;;;;;;5032166;28;20213;-52
2024/01/04 04:46:09;;;;;;;8.93;3.53;;;8.70;99.90;;;;;;5033154;28;20532;-52
2024/01/04 04:48:36;;;;;;;9.48;3.30;;;8.70;99.90;;;;;;5033384;28;20175;-52
2024/01/04 04:51:02;;;;;;;8.38;2.67;;;8.70;99.90;;;;;;5033554;28;20674;-46
2024/01/04 04:53:27;;;;;;;5.32;2.85;;;8.70;99.90;;;;;;5033581;28;20174;-50
2024/01/04 04:55:53;;;;;;;4.95;3.05;;;8.70;99.90;;;;;;5033063;28;20223;-53
2024/01/04 04:58:19;;;;;;;9.32;3.10;;;8.70;99.90;;;;;;5033073;28;20213;-50
2024/01/04 05:00:44;;;;;;;4.97;2.45;;;8.70;99.90;;;;;;5033005;28;20174;-51
2024/01/04 05:03:10;;;;;;;4.10;2.17;;;8.70;99.90;;;;;;5036742;28;20174;-46
2024/01/04 05:05:35;;;;;;;8.05;2.50;;;8.70;99.90;;;;;;5052762;28;20167;-46
2024/01/04 05:08:04;;;;;;;3.47;1.65;;;8.60;99.90;;;;;;5053412;28;20170;-46
2024/01/04 05:10:30;;;;;;;2.88;1.65;;;8.70;99.90;;;;;;5053177;28;20198;-47
2024/01/04 05:12:56;;;;;;;1.40;1.30;;;8.60;99.90;;;;;;5052682;28;20573;-46
2024/01/04 05:15:21;;;;;;;2.70;1.20;;;8.50;99.90;;;;;;5052701;28;20182;-46
2024/01/04 05:17:47;;;;;;;4.88;1.33;;;8.50;99.90;;;;;;5052601;28;20175;-47
2024/01/04 05:20:15;;;;;;;3.15;1.52;;;8.50;99.90;;;;;;5052714;28;20625;-46
2024/01/04 05:22:41;;;;;;;3.90;1.20;;;8.40;99.90;;;;;;5035922;28;20258;-47
2024/01/04 05:25:07;;;;;;;1.15;0.88;;;8.40;99.90;;;;;;5032561;28;20255;-47
2024/01/04 05:27:33;;;;;;;3.22;1.13;;;8.40;99.90;;;;;;5032939;28;20187;-47
2024/01/04 05:29:58;;;;;;;1.65;1.10;;;8.40;99.90;;;;;;5032872;28;20568;-47
2024/01/04 05:32:24;;;;;;;0.93;0.65;;;8.40;99.90;;;;;;5032271;28;20203;-47
2024/01/04 05:34:49;;;;;;;0.93;0.93;;;8.30;99.90;;;;;;5049615;28;20187;-48
2024/01/04 05:37:15;;;;;;;2.55;1.48;;;8.30;99.90;;;;;;5052149;28;20264;-47
2024/01/04 05:39:42;;;;;;;1.98;1.40;;;8.30;99.90;;;;;;5052080;28;20170;-47
2024/01/04 05:42:07;;;;;;;1.67;1.42;;;8.30;99.90;;;;;;5052276;28;20171;-47
2024/01/04 05:44:33;;;;;;;3.10;1.17;;;8.20;99.90;;;;;;5051979;28;20189;-47
2024/01/04 05:46:58;;;;;;;1.13;1.08;;;8.30;99.90;;;;;;5052488;28;20250;-47
2024/01/04 05:49:24;;;;;;;1.20;1.10;;;8.20;99.90;;;;;;5051853;28;20288;-47
2024/01/04 05:51:49;;;;;;;2.17;1.10;;;8.20;99.90;;;;;;5051992;28;20174;-47
2024/01/04 05:54:15;;;;;;;1.40;1.30;;;8.20;99.90;;;;;;5051879;28;20167;-48
2024/01/04 05:56:42;;;;;;;4.28;1.45;;;8.20;99.90;;;;;;5051797;28;20225;-48
2024/01/04 05:59:08;;;;;;;3.72;1.55;;;8.10;99.90;;;;;;5051891;28;20182;-48
2024/01/04 06:01:34;;;;;;;1.50;1.40;;;8.10;99.90;;;;;;5051380;28;20175;-49
2024/01/04 06:04:00;;;;;;;2.53;1.88;;;8.10;99.90;;;;;;5041486;28;20183;-50
2024/01/04 06:06:26;;;;;;;1.85;1.73;;;8.20;99.90;;;;;;5032018;28;20171;-52
2024/01/04 06:08:51;;;;;;;2.30;1.85;;;8.20;99.90;;;;;;5031653;28;20167;-50
2024/01/04 06:11:18;;;;;;;5.30;2.55;;;8.20;99.90;;;;;;5031749;28;20190;-53
2024/01/04 06:13:44;;;;;;;4.68;2.10;;;8.20;99.90;;;;;;5031926;28;20206;-53
2024/01/04 06:16:09;;;;;;;5.28;2.10;;;8.20;99.90;;;;;;5031775;28;20203;-51
2024/01/04 06:18:35;;;;;;;5.22;2.15;;;8.20;99.90;;;;;;5031483;28;20204;-47
2024/01/04 06:21:01;;;;;;;3.65;2.10;;;8.10;99.90;;;;;;5032085;28;20171;-48
2024/01/04 06:23:28;;;;;;;1.98;1.83;;;8.20;99.90;;;;;;5031951;28;20181;-47
2024/01/04 06:25:54;;;;;;;1.63;1.50;;;8.10;99.90;;;;;;5031480;28;20163;-47
2024/01/04 06:28:20;;;;;;;2.33;1.23;;;8.20;99.90;;;;;;5031432;28;20176;-47
2024/01/04 06:30:46;;;;;;;1.20;1.10;;;8.10;99.90;;;;;;5031597;28;20215;-48
2024/01/04 06:33:12;;;;;;;2.03;1.20;;;8.10;99.90;;;;;;5034753;28;20163;-47
2024/01/04 06:35:37;;;;;;;0.88;0.88;;;8.10;99.90;;;;;;5051249;28;20197;-47
2024/01/04 06:38:07;;;;;;;0.60;0.60;;;8.00;99.90;;;;;;5051220;28;20166;-54
2024/01/04 06:40:42;;;;;;;2.75;0.90;;;8.00;99.90;;;;;;5051321;28;20676;-47
2024/01/04 06:43:08;;;;;;;1.10;0.77;;;7.90;99.90;;;;;;5051175;28;20189;-47
2024/01/04 06:45:37;;;;;;;1.00;0.85;;;8.00;99.90;;;;;;5051358;28;20213;-49
2024/01/04 06:48:07;;;;;;;1.52;0.85;;;8.00;99.90;;;;;;5051166;28;20292;-48
2024/01/04 06:50:33;;;;;;;0.88;0.73;;;8.00;99.90;;;;;;5050979;28;20700;-47
2024/01/04 06:52:58;;;;;;;0.90;0.80;;;8.00;99.90;;;;;;5051596;28;20170;-47
2024/01/04 06:55:24;;;;;;;1.80;0.93;;;8.00;99.90;;;;;;5050878;28;20252;-48
2024/01/04 06:57:49;;;;;;;1.67;1.17;;;8.00;99.90;;;;;;5050986;28;20250;-48
2024/01/04 07:00:15;;;;;;;1.23;0.95;;;8.00;99.90;;;;;;5051105;28;20630;-47
2024/01/04 07:02:41;;;;;;;1.02;0.93;;;8.00;99.90;;;;;;5047185;28;20175;-51
2024/01/04 07:05:07;;;;;;;2.45;1.33;;;8.00;99.90;;;;;;5031062;28;20167;-48
2024/01/04 07:07:34;;;;;;;1.98;1.30;;;8.00;99.90;;;;;;5030998;28;20167;-47
2024/01/04 07:10:00;;;;;;;1.90;1.70;;;8.00;99.90;;;;;;5030255;28;20207;-47
2024/01/04 07:12:25;;;;;;;4.10;2.03;;;8.00;99.90;;;;;;5029797;28;20696;-54
2024/01/04 07:14:52;;;;;;;2.20;1.52;;;8.00;99.90;;;;;;5033613;28;20262;-53
2024/01/04 07:17:18;;;;;;;2.65;2.03;;;8.00;99.90;;;;;;5035015;28;20217;-53
2024/01/04 07:19:43;;;;;;;4.32;1.75;;;8.10;99.90;;;;;;5034884;28;20182;-53
2024/01/04 07:22:12;;;;;;;1.77;1.58;;;8.10;99.90;;;;;;5034934;28;20249;-53
2024/01/04 07:24:38;;;;;;;1.73;1.40;;;8.00;99.90;;;;;;5034792;28;20179;-49
2024/01/04 07:27:04;;;;;;;3.80;2.00;;;8.10;99.90;;;;;;5034717;28;20164;-53
2024/01/04 07:29:33;;;;;;;5.63;2.90;;;8.10;99.90;;;;;;5035070;28;20195;-52
2024/01/04 07:31:58;;;;;;;3.47;2.25;;;8.10;99.90;;;;;;5035143;28;20170;-53
2024/01/04 07:34:24;;;;;;;4.00;2.83;;;8.10;99.90;;;;;;5052029;28;20170;-50
2024/01/04 07:36:51;;;;;;;7.15;3.13;;;8.10;99.90;;;;;;5054437;28;20569;-51
2024/01/04 07:39:17;;;;;;;3.38;2.80;;;8.20;99.90;;;;;;5054645;28;20175;-53
2024/01/04 07:41:43;;;;;;;5.00;3.25;;;8.20;99.90;;;;;;5054393;28;20198;-50
2024/01/04 07:44:09;;;;;;;3.45;3.10;;;8.20;99.90;;;;;;5054662;28;20175;-53
2024/01/04 07:46:35;;;;;;;3.42;3.10;;;8.20;99.90;;;;;;5054382;28;20159;-53
2024/01/04 07:49:01;;;;;;;6.60;2.83;;;8.30;99.90;;;;;;5054710;28;20174;-51
2024/01/04 07:51:26;;;;;;;5.90;3.00;;;8.20;99.90;;;;;;5055019;28;20657;-53
2024/01/04 07:53:52;;;;;;;4.43;2.75;;;8.20;99.90;;;;;;5054199;28;20209;-52
2024/01/04 07:56:18;;;;;;;5.97;3.30;;;8.20;99.90;;;;;;5053903;28;20229;-51
2024/01/04 07:58:43;;;;;;;5.75;3.00;;;8.20;99.90;;;;;;5054096;28;20167;-52
2024/01/04 08:01:09;;;;;;;7.18;3.47;;;8.30;99.90;;;;;;5054083;28;20171;-53
2024/01/04 08:03:34;;;;;;;7.75;3.90;;;8.30;99.90;;;;;;5053213;28;20184;-53
2024/01/04 08:06:00;;;;;;;5.30;3.42;;;8.30;99.90;;;;;;5054469;28;20158;-51
2024/01/04 08:08:28;;;;;;;8.18;3.45;;;8.30;99.90;;;;;;5053868;28;20250;-52
2024/01/04 08:10:54;;;;;;;6.68;3.00;;;8.30;99.90;;;;;;5053722;28;20211;-48
2024/01/04 08:13:20;;;;;;;6.38;2.95;;;8.30;99.90;;;;;;5052555;28;20166;-48
2024/01/04 08:15:45;;;;;;;5.10;3.05;;;8.30;99.90;;;;;;5053835;28;20170;-47
2024/01/04 08:18:11;;;;;;;5.97;2.55;;;8.30;99.90;;;;;;5053800;28;20170;-49
2024/01/04 08:20:37;;;;;;;6.25;3.15;;;8.30;99.90;;;;;;5053723;28;20241;-48
2024/01/04 08:23:03;;;;;;;4.80;2.95;;;8.30;99.90;;;;;;5053590;28;20175;-48
2024/01/04 08:25:28;;;;;;;7.30;2.67;;;8.30;99.90;;;;;;5053938;28;20206;-47
2024/01/04 08:27:54;;;;;;;3.50;2.53;;;8.40;99.90;;;;;;5053578;28;20169;-47
2024/01/04 08:30:20;;;;;;;5.10;2.47;;;8.40;99.90;;;;;;5053305;28;20209;-48
2024/01/04 08:32:45;;;;;;;7.25;3.17;;;8.40;99.90;;;;;;5044920;28;20179;-49
2024/01/04 08:35:11;;;;;;;6.43;2.38;;;8.40;99.90;;;;;;5034864;28;20209;-49
2024/01/04 08:37:37;;;;;;;6.75;2.85;;;8.40;99.90;;;;;;5033639;28;20216;-47
2024/01/04 08:40:04;;;;;;;7.85;2.40;;;8.50;99.90;;;;;;5033579;28;20670;-50
2024/01/04 08:42:30;;;;;;;6.00;2.47;;;8.40;99.90;;;;;;5034101;28;20178;-49
2024/01/04 08:44:55;;;;;;;6.40;2.50;;;8.50;99.90;;;;;;5033561;28;20167;-47
2024/01/04 08:47:22;;;;;;;5.88;2.45;;;8.50;99.90;;;;;;5033284;28;20512;-47
2024/01/04 08:49:47;;;;;;;2.60;1.70;;;8.60;99.90;;;;;;5033395;28;20251;-48
2024/01/04 08:52:13;;;;;;;4.07;2.03;;;8.60;99.90;;;;;;5043689;28;20654;-48
2024/01/04 08:54:38;;;;;;;6.15;2.10;;;8.60;99.90;;;;;;5051216;28;20521;-44
2024/01/04 08:57:06;;;;;;;6.15;2.05;;;8.60;99.90;;;;;;5051134;28;20538;-46
2024/01/04 08:59:32;;;;;;;6.07;2.03;;;8.70;99.90;;;;;;5051516;28;20179;-44
2024/01/04 09:01:58;;;;;;;9.90;2.03;;;8.70;99.90;;;;;;5045183;28;20182;-46
2024/01/04 09:04:24;;;;;;;4.57;2.05;;;8.80;99.90;;;;;;5031131;28;20173;-46
2024/01/04 09:06:49;;;;;;;2.33;1.67;;;8.80;99.90;;;;;;5031152;28;20258;-50
2024/01/04 09:09:15;;;;;;;1.75;1.55;;;8.80;99.90;;;;;;5030993;28;20230;-51
2024/01/04 09:11:41;;;;;;;4.38;1.80;;;8.90;99.90;;;;;;5031312;28;20686;-49
2024/01/04 09:14:11;;;;;;;6.18;2.08;;;9.00;99.90;;;;;;5031205;28;20241;-49
2024/01/04 09:16:39;;;;;;;4.47;1.80;;;9.00;99.90;;;;;;5031039;28;20277;-49
2024/01/04 09:19:05;;;;;;;3.83;1.75;;;9.00;99.90;;;;;;5030771;28;20357;-49
2024/01/04 09:21:31;;;;;;;3.40;1.88;;;9.10;99.90;;;;;;5030957;28;20178;-46
2024/01/04 09:23:56;;;;;;;3.20;1.42;;;9.00;99.90;;;;;;5031324;28;20233;-49
2024/01/04 09:26:22;;;;;;;4.22;1.52;;;9.00;99.90;;;;;;5030624;28;20175;-49
2024/01/04 09:28:48;;;;;;;5.97;1.85;;;9.00;99.90;;;;;;5030893;28;20222;-49
2024/01/04 09:31:13;;;;;;;8.07;2.03;;;8.90;99.90;;;;;;5030883;28;20179;-47
2024/01/04 09:33:40;;;;;;;2.97;1.73;;;9.00;99.90;;;;;;5050008;28;20171;-49
2024/01/04 09:36:07;;;;;;;5.63;2.15;;;8.90;99.90;;;;;;5049909;28;20166;-48
2024/01/04 09:38:34;;;;;;;4.90;1.73;;;8.90;99.90;;;;;;5050451;28;20175;-46
2024/01/04 09:41:44;;;;;;;2.50;1.80;;;8.80;99.90;;;;;;5051141;28;20175;-49
2024/01/04 09:44:11;;;;;;;3.17;2.35;;;8.90;99.90;;;;;;5038405;28;20178;-47
2024/01/04 09:46:37;;;;;;;7.28;2.10;;;8.90;99.90;;;;;;5050224;28;20173;-49
2024/01/04 09:49:04;;;;;;;4.53;2.60;;;8.80;99.90;;;;;;5050577;28;20171;-45
2024/01/04 09:51:37;;;;;;;5.07;2.10;;;8.90;99.90;;;;;;5050600;28;20170;-46
2024/01/04 09:54:08;;;;;;;4.28;1.90;;;8.90;99.90;;;;;;5050031;28;20216;-46
2024/01/04 09:56:43;;;;;;;3.55;1.35;;;9.00;99.90;;;;;;5049769;28;20237;-47
2024/01/04 09:59:10;;;;;;;3.08;1.20;;;8.60;99.90;;;;;;5050280;28;20285;-49
2024/01/04 10:01:38;;;;;;;1.45;1.02;;;8.50;99.90;;;;;;5041295;28;20524;-46
2024/01/04 10:04:12;;;;;;;2.13;1.33;;;8.50;99.90;;;;;;5030309;28;20197;-46
2024/01/04 10:06:39;;;;;;;4.00;2.20;;;8.50;99.90;;;;;;5030181;28;20238;-49
2024/01/04 10:09:38;;;;;;;5.03;2.25;;;8.60;99.90;;;;;;5030020;28;20194;-47
2024/01/04 10:12:08;;;;;;;3.78;1.98;;;8.70;99.90;;;;;;5029938;28;20183;-49
2024/01/04 10:14:35;;;;;;;5.53;2.50;;;8.70;99.90;;;;;;5030080;28;20600;-48
2024/01/04 10:17:04;;;;;;;4.28;2.05;;;8.70;99.90;;;;;;5029820;28;20258;-47
2024/01/04 10:19:33;;;;;;;4.72;2.10;;;8.80;99.90;;;;;;5030567;28;20171;-47
2024/01/04 10:22:03;;;;;;;4.10;2.08;;;8.90;99.90;;;;;;5030087;28;20167;-46
2024/01/04 10:24:31;;;;;;;4.55;2.38;;;9.00;99.90;;;;;;5030076;28;20224;-47
2024/01/04 10:26:58;;;;;;;4.38;1.95;;;9.10;99.90;;;;;;5030075;28;20175;-46
2024/01/04 10:29:28;;;;;;;5.03;2.30;;;9.10;99.90;;;;;;5029496;28;20567;-46
2024/01/04 10:32:01;;;;;;;5.28;1.50;;;9.20;99.90;;;;;;5038633;28;20638;-47
2024/01/04 10:34:28;;;;;;;3.20;1.75;;;9.30;99.90;;;;;;5049669;28;20186;-46
2024/01/04 10:36:57;;;;;;;2.35;1.40;;;9.30;99.90;;;;;;5049724;28;20240;-46
2024/01/04 10:39:22;;;;;;;4.50;1.67;;;9.30;99.90;;;;;;5049451;28;20231;-46
2024/01/04 10:42:00;;;;;;;6.10;2.00;;;9.30;99.90;;;;;;5049312;28;20257;-46
2024/01/04 10:44:25;;;;;;;4.55;1.67;;;9.30;99.90;;;;;;5049641;28;20178;-46
2024/01/04 10:46:59;;;;;;;6.53;1.75;;;9.30;99.90;;;;;;5049207;28;20170;-47
2024/01/04 10:49:25;;;;;;;2.83;1.45;;;9.30;99.90;;;;;;5049417;28;20336;-46
2024/01/04 10:51:58;;;;;;;2.83;1.40;;;9.30;99.90;;;;;;5049211;28;20182;-46
2024/01/04 10:54:34;;;;;;;4.80;1.45;;;9.30;99.90;;;;;;5049456;28;20262;-46
2024/01/04 10:57:01;;;;;;;3.70;1.75;;;9.20;99.90;;;;;;5048508;28;20555;-46
2024/01/04 10:59:29;;;;;;;5.25;1.58;;;9.20;99.90;;;;;;5049910;28;20170;-48
2024/01/04 11:01:56;;;;;;;2.83;1.58;;;7.60;99.90;;;;;;5035591;28;20217;-47
2024/01/04 11:04:23;;;;;;;5.43;1.50;;;9.20;99.90;;;;;;5029114;28;20174;-48
2024/01/04 11:06:52;;;;;;;5.22;1.67;;;9.30;99.90;;;;;;5029105;28;20160;-47
2024/01/04 11:09:22;;;;;;;7.63;2.17;;;9.30;99.90;;;;;;5029058;28;20199;-49
2024/01/04 11:11:53;;;;;;;6.72;1.80;;;9.30;99.90;;;;;;5027918;28;20178;-47
2024/01/04 11:14:22;;;;;;;3.63;1.73;;;9.30;99.90;;;;;;5028991;28;20434;-46
2024/01/04 11:17:17;;;;;;;10.38;2.33;;;9.20;99.90;;;;;;5029088;28;20197;-48
2024/01/04 11:20:26;;;;;;;9.85;2.20;;;9.20;99.90;;;;;;5029037;28;20168;-49
2024/01/04 11:23:11;;;;;;;13.50;2.90;;;9.20;99.90;;;;;;5013460;28;20159;-47
2024/01/04 11:26:04;;;;;;;7.60;2.25;;;9.10;99.90;;;;;;5029072;28;20199;-48
2024/01/04 11:28:30;;;;;;;12.95;2.90;;;9.10;99.90;;;;;;5029465;28;20631;-46
2024/01/04 11:30:55;;;;;;;15.98;3.75;;;9.10;99.90;;;;;;5030054;28;20302;-48
2024/01/04 11:33:27;;;;;;;13.30;2.72;;;9.10;99.90;;;;;;5029319;28;20242;-46
2024/01/04 11:35:53;;;;;;;15.60;3.75;;;9.10;99.90;;;;;;5029314;28;20199;-47
2024/01/04 11:38:30;;;;;;;8.07;2.22;;;9.20;99.90;;;;;;5029115;28;20245;-46
2024/01/04 11:40:56;;;;;;;15.63;3.22;;;9.20;99.90;;;;;;5029623;28;20503;-47
2024/01/04 11:43:24;;;;;;;14.38;2.92;;;9.10;99.90;;;;;;5028136;28;20175;-49
2024/01/04 11:45:50;;;;;;;13.10;3.30;;;9.00;99.90;;;;;;5028630;28;21133;-52
2024/01/04 11:48:18;;;;;;;21.52;3.80;;;9.10;99.90;;;;;;5028934;28;20175;-48
2024/01/04 11:50:50;;;;;;;17.00;3.45;;;9.10;99.90;;;;;;5028522;28;20277;-52
2024/01/04 11:53:17;;;;;;;16.08;3.25;;;9.10;99.90;;;;;;5028859;28;20203;-52
2024/01/04 11:55:43;;;;;;;6.82;2.70;;;9.10;99.90;;;;;;5028744;28;20626;-52
2024/01/04 11:58:14;;;;;;;18.00;3.38;;;9.10;99.90;;;;;;5028353;28;20175;-51
2024/01/04 12:00:47;;;;;;;15.63;3.03;;;9.00;99.90;;;;;;5038214;28;20510;-51
2024/01/04 12:03:14;;;;;;;14.82;2.63;;;9.00;99.90;;;;;;5051663;28;20646;-52
2024/01/04 12:05:45;;;;;;;14.57;2.47;;;8.90;99.90;;;;;;5052067;28;20178;-48
2024/01/04 12:08:29;;;;;;;15.20;2.83;;;8.90;99.90;;;;;;5051902;28;20202;-50
2024/01/04 12:10:56;;;;;;;16.83;3.38;;;8.90;99.90;;;;;;5050548;28;20615;-51
2024/01/04 12:13:22;;;;;;;13.75;3.45;;;8.90;99.90;;;;;;5051528;28;20159;-49
2024/01/04 12:15:48;;;;;;;11.63;3.25;;;8.90;99.90;;;;;;5051862;28;20194;-53
2024/01/04 12:18:14;;;;;;;8.85;2.60;;;8.90;99.90;;;;;;5051726;28;20163;-52
2024/01/04 12:20:40;;;;;;;18.70;3.03;;;8.90;99.90;;;;;;5051581;28;20179;-51
2024/01/04 12:23:07;;;;;;;15.35;3.05;;;8.90;99.90;;;;;;5051940;28;20185;-52
2024/01/04 12:25:36;;;;;;;14.48;3.53;;;9.00;99.90;;;;;;5051561;28;20163;-52
2024/01/04 12:28:02;;;;;;;12.80;3.30;;;9.00;99.90;;;;;;5051253;28;20159;-52
2024/01/04 12:30:29;;;;;;;19.45;4.53;;;9.00;99.90;;;;;;5046057;28;20203;-53
2024/01/04 12:32:58;;;;;;;18.40;2.80;;;9.10;99.90;;;;;;5031566;28;20172;-52
2024/01/04 12:35:23;;;;;;;17.25;2.90;;;9.10;99.90;;;;;;5031538;28;20171;-52
2024/01/04 12:38:03;;;;;;;14.60;3.03;;;9.10;99.90;;;;;;5031648;28;20174;-52
2024/01/04 12:40:38;;;;;;;12.18;2.80;;;9.10;99.90;;;;;;5032053;28;20179;-52
2024/01/04 12:43:04;;;;;;;6.80;2.92;;;9.10;99.90;;;;;;5031598;28;20202;-53
2024/01/04 12:45:30;;;;;;;4.80;2.03;;;9.10;99.90;;;;;;5031320;28;20167;-46
2024/01/04 12:48:04;;;;;;;10.95;2.90;;;9.20;99.90;;;;;;5031709;28;20226;-48
2024/01/04 12:50:30;;;;;;;15.35;2.65;;;9.20;99.90;;;;;;5031584;28;20237;-48
2024/01/04 12:52:56;;;;;;;21.95;2.65;;;9.20;99.90;;;;;;5031958;28;20171;-49
2024/01/04 12:55:22;;;;;;;11.90;3.10;;;9.20;99.90;;;;;;5030748;28;20691;-48